createdAt,value
2022-09-23T00:02:10.464Z,72.33
2022-09-23T00:04:38.748Z,72.25
2022-09-23T00:07:06.765Z,70.24
2022-09-23T00:09:34.798Z,71.28
2022-09-23T00:12:08.846Z,71.45
2022-09-23T00:14:42.050Z,72.43
2022-09-23T00:17:11.944Z,72.68
2022-09-23T00:19:40.692Z,71.41
2022-09-23T00:22:08.894Z,71.52
2022-09-23T00:24:36.956Z,71.21
2022-09-23T00:27:04.785Z,71.14
2022-09-23T00:29:33.711Z,71.90
2022-09-23T00:32:04.937Z,72.05
2022-09-23T00:34:33.029Z,71.88
2022-09-23T00:37:00.991Z,73.07
2022-09-23T00:39:28.550Z,72.82
2022-09-23T00:41:56.465Z,71.32
2022-09-23T00:44:41.689Z,70.26
2022-09-23T00:47:12.646Z,72.09
2022-09-23T00:49:42.785Z,72.55
2022-09-23T00:52:11.215Z,72.28
2022-09-23T00:54:38.851Z,73.13
2022-09-23T00:57:07.029Z,72.07
2022-09-23T00:59:38.807Z,72.41
2022-09-23T01:02:06.769Z,72.40
2022-09-23T01:04:36.201Z,72.53
2022-09-23T01:07:06.278Z,72.44
2022-09-23T01:09:36.890Z,73.50
2022-09-23T01:12:07.287Z,73.89
2022-09-23T01:14:37.688Z,73.97
2022-09-23T01:17:06.166Z,73.84
2022-09-23T01:19:48.735Z,73.01
2022-09-23T01:22:19.188Z,74.33
2022-09-23T01:24:48.204Z,74.91
2022-09-23T01:27:27.781Z,76.12
2022-09-23T01:30:19.405Z,75.38
2022-09-23T01:32:54.921Z,75.58
2022-09-23T01:35:27.389Z,75.43
2022-09-23T01:37:57.573Z,75.94
2022-09-23T01:40:29.726Z,76.19
2022-09-23T01:42:58.461Z,76.58
2022-09-23T01:45:27.082Z,77.03
2022-09-23T01:47:57.257Z,76.62
2022-09-23T01:50:43.963Z,76.47
2022-09-23T01:53:13.404Z,75.93
2022-09-23T01:55:41.466Z,76.09
2022-09-23T01:58:09.612Z,75.53
2022-09-23T02:00:43.104Z,74.62
2022-09-23T02:03:13.617Z,74.70
2022-09-23T02:05:43.563Z,74.40
2022-09-23T02:08:11.955Z,75.04
2022-09-23T02:10:42.119Z,75.60
2022-09-23T02:13:13.852Z,75.44
2022-09-23T02:15:45.226Z,74.34
2022-09-23T02:18:15.462Z,74.56
2022-09-23T02:20:44.117Z,75.55
2022-09-23T02:23:13.135Z,76.04
2022-09-23T02:25:41.338Z,75.14
2022-09-23T02:28:10.721Z,75.18
2022-09-23T02:30:39.956Z,76.39
2022-09-23T02:33:08.122Z,75.40
2022-09-23T02:35:37.977Z,75.44
2022-09-23T02:38:09.019Z,75.39
2022-09-23T02:40:38.126Z,76.09
2022-09-23T02:43:07.185Z,75.88
2022-09-23T02:45:36.098Z,75.70
2022-09-23T02:48:04.665Z,75.87
2022-09-23T02:50:35.006Z,75.47
2022-09-23T02:53:04.754Z,74.44
2022-09-23T02:55:32.751Z,74.89
2022-09-23T02:58:01.492Z,76.88
2022-09-23T03:00:31.586Z,77.93
2022-09-23T03:03:06.639Z,78.12
2022-09-23T03:05:37.723Z,77.57
2022-09-23T03:08:18.362Z,76.91
2022-09-23T03:10:47.730Z,76.50
2022-09-23T03:13:22.195Z,77.62
2022-09-23T03:15:57.590Z,77.36
2022-09-23T03:18:28.279Z,77.16
2022-09-23T03:20:57.337Z,75.19
2022-09-23T03:23:27.704Z,74.87
2022-09-23T03:25:56.126Z,75.28
2022-09-23T03:28:25.510Z,75.61
2022-09-23T03:30:53.415Z,75.44
2022-09-23T03:33:28.407Z,74.42
2022-09-23T03:36:15.514Z,75.00
2022-09-23T03:38:45.585Z,73.57
2022-09-23T03:41:16.655Z,74.26
2022-09-23T03:43:46.761Z,73.89
2022-09-23T03:46:28.602Z,73.67
2022-09-23T03:48:57.012Z,74.04
2022-09-23T03:51:25.014Z,73.85
2022-09-23T03:53:56.798Z,73.94
2022-09-23T03:56:28.978Z,74.73
2022-09-23T03:58:59.194Z,73.27
2022-09-23T04:01:27.225Z,73.81
2022-09-23T04:03:57.916Z,74.50
2022-09-23T04:06:25.996Z,74.67
2022-09-23T04:08:55.221Z,74.73
2022-09-23T04:11:23.129Z,75.90
2022-09-23T04:13:52.992Z,75.90
2022-09-23T04:16:21.091Z,75.46
2022-09-23T04:18:50.574Z,75.63
2022-09-23T04:21:18.263Z,75.17
2022-09-23T04:23:46.555Z,74.51
2022-09-23T04:26:16.334Z,74.72
2022-09-23T04:28:44.239Z,75.27
2022-09-23T04:31:11.808Z,74.23
2022-09-23T04:33:39.550Z,74.53
2022-09-23T04:36:10.019Z,73.74
2022-09-23T04:38:41.506Z,73.60
2022-09-23T04:41:12.004Z,72.60
2022-09-23T04:43:42.256Z,72.54
2022-09-23T04:46:14.196Z,73.40
2022-09-23T04:48:43.030Z,72.66
2022-09-23T04:51:11.206Z,73.34
2022-09-23T04:53:39.869Z,72.57
2022-09-23T04:56:09.581Z,72.91
2022-09-23T04:58:37.282Z,73.46
2022-09-23T05:01:14.286Z,74.30
2022-09-23T05:03:42.557Z,74.27
2022-09-23T05:06:11.114Z,73.54
2022-09-23T05:08:40.949Z,74.24
2022-09-23T05:11:09.076Z,74.39
2022-09-23T05:13:37.395Z,73.33
2022-09-23T05:16:09.040Z,73.84
2022-09-23T05:18:42.821Z,73.44
2022-09-23T05:21:13.412Z,73.44
2022-09-23T05:23:41.684Z,73.08
2022-09-23T05:26:10.423Z,74.22
2022-09-23T05:28:39.355Z,72.15
2022-09-23T05:31:08.139Z,72.96
2022-09-23T05:33:36.714Z,72.47
2022-09-23T05:36:09.664Z,72.22
2022-09-23T05:38:38.763Z,72.77
2022-09-23T05:41:07.544Z,72.37
2022-09-23T05:43:35.373Z,73.25
2022-09-23T05:46:07.767Z,72.70
2022-09-23T05:48:36.272Z,73.11
2022-09-23T05:51:12.850Z,73.07
2022-09-23T05:53:42.210Z,72.76
2022-09-23T05:56:11.249Z,73.33
2022-09-23T05:58:40.695Z,73.54
2022-09-23T06:01:12.565Z,73.57
2022-09-23T06:03:40.305Z,73.64
2022-09-23T06:06:13.090Z,75.06
2022-09-23T06:08:41.168Z,74.44
2022-09-23T06:11:09.182Z,73.66
2022-09-23T06:13:38.313Z,74.52
2022-09-23T06:16:09.197Z,73.76
2022-09-23T06:18:37.374Z,74.34
2022-09-23T06:21:07.954Z,73.92
2022-09-23T06:23:41.926Z,72.82
2022-09-23T06:26:10.542Z,74.66
2022-09-23T06:28:49.218Z,74.19
2022-09-23T06:31:19.374Z,74.19
2022-09-23T06:33:59.965Z,74.20
2022-09-23T06:36:42.573Z,74.04
2022-09-23T06:39:13.765Z,72.30
2022-09-23T06:41:43.379Z,74.08
2022-09-23T06:44:11.406Z,72.91
2022-09-23T06:46:39.236Z,72.40
2022-09-23T06:49:07.595Z,72.16
2022-09-23T06:51:35.619Z,71.88
2022-09-23T06:54:03.598Z,71.24
2022-09-23T06:56:38.524Z,71.21
2022-09-23T06:59:06.704Z,71.22
2022-09-23T07:01:34.929Z,70.19
2022-09-23T07:04:03.529Z,69.67
2022-09-23T07:06:31.398Z,69.97
2022-09-23T07:09:01.073Z,70.14
2022-09-23T07:11:30.734Z,69.55
2022-09-23T07:14:03.907Z,68.14
2022-09-23T07:16:32.890Z,68.15
2022-09-23T07:19:00.560Z,68.89
2022-09-23T07:21:29.303Z,68.19
2022-09-23T07:23:58.256Z,67.90
2022-09-23T07:26:26.143Z,68.13
2022-09-23T07:29:06.701Z,68.55
2022-09-23T07:31:39.772Z,68.26
2022-09-23T07:34:12.646Z,65.56
2022-09-23T07:36:41.403Z,66.17
2022-09-23T07:39:10.191Z,66.95
2022-09-23T07:41:44.232Z,65.73
2022-09-23T07:44:12.091Z,67.41
2022-09-23T07:46:41.461Z,66.71
2022-09-23T07:49:10.742Z,67.95
2022-09-23T07:51:41.186Z,66.14
2022-09-23T07:54:10.534Z,64.21
2022-09-23T07:56:38.605Z,63.03
2022-09-23T07:59:08.814Z,64.63
2022-09-23T08:01:37.261Z,62.57
2022-09-23T08:04:14.678Z,62.92
2022-09-23T08:06:43.344Z,63.55
2022-09-23T08:09:12.346Z,64.13
2022-09-23T08:11:42.237Z,64.59
2022-09-23T08:14:10.337Z,63.39
2022-09-23T08:16:38.104Z,63.74
2022-09-23T08:19:07.345Z,63.04
2022-09-23T08:21:35.022Z,62.60
2022-09-23T08:24:03.348Z,61.84
2022-09-23T08:26:34.266Z,61.57
2022-09-23T08:29:02.369Z,62.16
2022-09-23T08:31:32.153Z,62.37
2022-09-23T08:33:59.912Z,62.06
2022-09-23T08:36:30.845Z,59.97
2022-09-23T08:38:59.202Z,61.86
2022-09-23T08:41:29.671Z,62.34
2022-09-23T08:44:00.240Z,62.29
2022-09-23T08:46:28.485Z,62.70
2022-09-23T08:48:56.188Z,61.89
2022-09-23T08:51:25.542Z,61.41
2022-09-23T08:53:54.903Z,62.33
2022-09-23T08:56:23.706Z,60.29
2022-09-23T08:58:56.267Z,60.33
2022-09-23T09:01:24.644Z,61.21
2022-09-23T09:03:53.882Z,60.77
2022-09-23T09:06:22.395Z,59.87
2022-09-23T09:08:54.025Z,59.26
2022-09-23T09:11:23.633Z,59.40
2022-09-23T09:13:56.250Z,59.59
2022-09-23T09:16:55.450Z,59.19
2022-09-23T09:19:22.382Z,58.44
2022-09-23T09:21:51.920Z,59.92
2022-09-23T09:24:21.425Z,58.32
2022-09-23T09:26:50.737Z,58.19
2022-09-23T09:29:36.312Z,57.99
2022-09-23T09:32:10.358Z,57.42
2022-09-23T09:34:41.711Z,57.49
2022-09-23T09:37:11.513Z,58.18
2022-09-23T09:39:39.522Z,59.35
2022-09-23T09:42:11.327Z,57.74
2022-09-23T09:44:40.314Z,57.38
2022-09-23T09:47:18.883Z,56.19
2022-09-23T09:49:47.089Z,55.55
2022-09-23T09:52:16.809Z,56.32
2022-09-23T09:54:44.778Z,57.31
2022-09-23T09:57:17.569Z,55.56
2022-09-23T09:59:45.268Z,56.26
2022-09-23T10:02:15.366Z,55.58
2022-09-23T10:04:44.198Z,55.47
2022-09-23T10:07:13.321Z,55.00
2022-09-23T10:09:43.153Z,54.29
2022-09-23T10:12:18.570Z,55.04
2022-09-23T10:14:50.572Z,54.49
2022-09-23T10:17:20.788Z,55.19
2022-09-23T10:19:48.822Z,56.97
2022-09-23T10:22:18.702Z,54.99
2022-09-23T10:24:48.889Z,54.52
2022-09-23T10:27:18.551Z,54.16
2022-09-23T10:29:50.249Z,56.36
2022-09-23T10:32:25.767Z,54.57
2022-09-23T10:34:54.787Z,54.57
2022-09-23T10:37:24.636Z,54.19
2022-09-23T10:40:09.828Z,55.25
2022-09-23T10:42:59.613Z,55.91
2022-09-23T10:45:45.099Z,56.34
2022-09-23T10:48:15.136Z,56.96
2022-09-23T10:50:43.315Z,57.75
2022-09-23T10:53:16.687Z,56.22
2022-09-23T10:55:46.802Z,55.70
2022-09-23T10:58:25.137Z,55.98
2022-09-23T11:00:56.132Z,54.57
2022-09-23T11:03:45.908Z,55.63
2022-09-23T11:06:14.831Z,54.69
2022-09-23T11:08:58.863Z,54.25
2022-09-23T11:11:31.609Z,53.06
2022-09-23T11:14:09.438Z,52.86
2022-09-23T11:16:41.456Z,53.08
2022-09-23T11:19:18.617Z,54.06
2022-09-23T11:21:53.736Z,55.20
2022-09-23T11:24:36.354Z,54.86
2022-09-23T11:27:07.125Z,54.09
2022-09-23T11:29:43.563Z,52.26
2022-09-23T11:32:21.181Z,50.69
2022-09-23T11:34:54.872Z,50.17
2022-09-23T11:37:23.924Z,52.02
2022-09-23T11:39:53.370Z,53.03
2022-09-23T11:42:21.526Z,53.49
2022-09-23T11:44:52.667Z,51.97
2022-09-23T11:47:22.495Z,51.71
2022-09-23T11:49:54.318Z,51.62
2022-09-23T11:52:22.811Z,52.13
2022-09-23T11:54:51.837Z,52.14
2022-09-23T11:57:22.060Z,53.15
2022-09-23T11:59:51.760Z,53.84
2022-09-23T12:02:25.629Z,53.53
2022-09-23T12:04:58.769Z,54.80
2022-09-23T12:07:28.822Z,54.27
2022-09-23T12:09:58.731Z,53.35
2022-09-23T12:12:28.361Z,52.24
2022-09-23T12:14:59.092Z,52.33
2022-09-23T12:17:31.289Z,52.80
2022-09-23T12:20:05.680Z,53.32
2022-09-23T12:22:37.749Z,54.82
2022-09-23T12:25:10.669Z,55.81
2022-09-23T12:27:48.371Z,54.48
2022-09-23T12:30:18.168Z,53.27
2022-09-23T12:32:46.528Z,53.51
2022-09-23T12:35:23.919Z,53.63
2022-09-23T12:37:54.349Z,52.42
2022-09-23T12:40:25.022Z,52.72
2022-09-23T12:42:52.741Z,52.07
2022-09-23T12:45:42.041Z,53.64
2022-09-23T12:48:29.067Z,53.41
2022-09-23T12:50:58.437Z,52.63
2022-09-23T12:53:54.399Z,52.70
2022-09-23T12:56:23.432Z,52.65
2022-09-23T12:59:12.128Z,52.80
2022-09-23T13:01:41.673Z,51.30
2022-09-23T13:04:45.928Z,51.18
2022-09-23T13:07:16.746Z,52.13
2022-09-23T13:09:44.828Z,54.22
2022-09-23T13:12:15.504Z,52.42
2022-09-23T13:14:44.121Z,51.04
2022-09-23T13:17:23.543Z,50.69
2022-09-23T13:19:58.670Z,50.81
2022-09-23T13:22:42.498Z,52.05
2022-09-23T13:25:17.694Z,53.17
2022-09-23T13:27:45.894Z,53.33
2022-09-23T13:30:23.609Z,52.99
2022-09-23T13:33:02.247Z,52.80
2022-09-23T13:35:31.849Z,51.83
2022-09-23T13:37:59.695Z,52.04
2022-09-23T13:40:28.612Z,52.84
2022-09-23T13:42:58.525Z,52.56
2022-09-23T13:45:26.814Z,53.03
2022-09-23T13:48:00.096Z,52.20
2022-09-23T13:50:34.139Z,51.32
2022-09-23T13:53:04.479Z,51.61
2022-09-23T13:55:32.811Z,51.23
2022-09-23T13:58:02.753Z,52.07
2022-09-23T14:00:35.317Z,52.87
2022-09-23T14:03:04.452Z,52.29
2022-09-23T14:05:36.101Z,49.44
2022-09-23T14:08:04.094Z,49.23
2022-09-23T14:10:32.509Z,51.20
2022-09-23T14:13:00.329Z,52.35
2022-09-23T14:15:28.317Z,50.72
2022-09-23T14:18:06.656Z,50.98
2022-09-23T14:20:36.289Z,50.45
2022-09-23T14:23:04.533Z,52.01
2022-09-23T14:25:33.131Z,52.77
2022-09-23T14:28:00.763Z,52.51
2022-09-23T14:30:29.901Z,51.53
2022-09-23T14:33:02.567Z,51.97
2022-09-23T14:35:40.693Z,52.79
2022-09-23T14:38:25.734Z,52.76
2022-09-23T14:41:14.943Z,52.70
2022-09-23T14:43:47.350Z,53.34
2022-09-23T14:46:18.602Z,53.28
2022-09-23T14:48:52.039Z,53.61
2022-09-23T14:51:21.299Z,54.38
2022-09-23T14:53:49.094Z,52.70
2022-09-23T14:56:25.344Z,52.97
2022-09-23T14:58:53.753Z,54.10
2022-09-23T15:01:28.638Z,54.50
2022-09-23T15:03:57.244Z,53.85
2022-09-23T15:06:26.610Z,53.61
2022-09-23T15:08:54.313Z,53.51
2022-09-23T15:11:22.587Z,55.05
2022-09-23T15:13:50.534Z,55.26
2022-09-23T15:16:18.509Z,54.94
2022-09-23T15:18:46.545Z,54.65
2022-09-23T15:21:14.632Z,54.56
2022-09-23T15:23:48.242Z,54.87
2022-09-23T15:26:17.911Z,55.08
2022-09-23T15:28:46.806Z,55.16
2022-09-23T15:31:15.905Z,55.25
2022-09-23T15:33:44.730Z,55.92
2022-09-23T15:36:12.808Z,56.03
2022-09-23T15:38:45.637Z,56.22
2022-09-23T15:41:15.265Z,56.47
2022-09-23T15:43:43.233Z,55.53
2022-09-23T15:46:13.699Z,55.85
2022-09-23T15:48:42.415Z,56.41
2022-09-23T15:51:10.294Z,56.26
2022-09-23T15:53:39.852Z,56.59
2022-09-23T15:56:07.458Z,57.18
2022-09-23T15:58:37.149Z,57.34
2022-09-23T16:01:05.043Z,57.26
2022-09-23T16:03:36.588Z,57.86
2022-09-23T16:06:06.200Z,57.42
2022-09-23T16:08:33.883Z,57.77
2022-09-23T16:11:01.569Z,58.02
2022-09-23T16:13:29.094Z,58.40
2022-09-23T16:15:59.522Z,58.96
2022-09-23T16:18:27.213Z,58.75
2022-09-23T16:20:58.900Z,58.27
2022-09-23T16:23:35.436Z,57.91
2022-09-23T16:26:08.406Z,57.90
2022-09-23T16:28:37.078Z,58.19
2022-09-23T16:31:06.520Z,58.03
2022-09-23T16:33:34.505Z,58.38
2022-09-23T16:36:02.533Z,58.14
2022-09-23T16:38:31.707Z,58.18
2022-09-23T16:41:00.757Z,58.88
2022-09-23T16:43:29.119Z,58.98
2022-09-23T16:45:59.157Z,59.53
2022-09-23T16:48:28.301Z,59.48
2022-09-23T16:50:58.892Z,59.72
2022-09-23T16:53:26.454Z,59.96
2022-09-23T16:55:54.410Z,59.66
2022-09-23T16:58:25.789Z,60.73
2022-09-23T17:01:15.700Z,60.39
2022-09-23T17:03:45.008Z,60.04
2022-09-23T17:06:13.435Z,59.95
2022-09-23T17:08:42.118Z,59.32
2022-09-23T17:11:10.653Z,59.81
2022-09-23T17:13:41.216Z,59.86
2022-09-23T17:16:08.985Z,60.05
2022-09-23T17:18:38.880Z,60.73
2022-09-23T17:21:09.084Z,61.15
2022-09-23T17:23:37.029Z,61.24
2022-09-23T17:26:09.702Z,61.27
2022-09-23T17:28:37.498Z,60.69
2022-09-23T17:31:09.229Z,60.22
2022-09-23T17:33:39.084Z,60.79
2022-09-23T17:36:11.301Z,61.00
2022-09-23T17:38:39.334Z,63.14
2022-09-23T17:41:09.477Z,62.66
2022-09-23T17:43:39.379Z,62.53
2022-09-23T17:46:07.984Z,62.40
2022-09-23T17:48:39.354Z,63.54
2022-09-23T17:51:11.083Z,64.09
2022-09-23T17:53:40.144Z,63.54
2022-09-23T17:56:08.468Z,63.59
2022-09-23T17:58:37.197Z,64.58
2022-09-23T18:01:08.400Z,64.37
2022-09-23T18:03:36.387Z,65.15
2022-09-23T18:06:21.880Z,64.43
2022-09-23T18:08:50.449Z,64.47
2022-09-23T18:11:19.216Z,64.29
2022-09-23T18:13:54.063Z,63.90
2022-09-23T18:16:23.225Z,64.80
2022-09-23T18:18:51.704Z,64.53
2022-09-23T18:21:20.928Z,64.59
2022-09-23T18:23:48.561Z,64.07
2022-09-23T18:26:16.565Z,64.78
2022-09-23T18:28:45.673Z,65.47
2022-09-23T18:31:13.494Z,65.56
2022-09-23T18:33:41.256Z,65.50
2022-09-23T18:36:09.317Z,65.89
2022-09-23T18:38:40.707Z,66.06
2022-09-23T18:41:13.892Z,65.75
2022-09-23T18:43:46.336Z,65.92
2022-09-23T18:46:19.661Z,65.70
2022-09-23T18:49:04.683Z,65.44
2022-09-23T18:51:38.787Z,65.51
2022-09-23T18:54:11.526Z,65.19
2022-09-23T18:56:41.048Z,65.98
2022-09-23T18:59:09.914Z,67.05
2022-09-23T19:01:37.972Z,66.73
2022-09-23T19:04:06.847Z,66.26
2022-09-23T19:06:35.338Z,66.55
2022-09-23T19:09:05.400Z,67.34
2022-09-23T19:11:36.246Z,67.72
2022-09-23T19:14:04.713Z,67.43
2022-09-23T19:16:34.838Z,67.51
2022-09-23T19:19:02.686Z,69.07
2022-09-23T19:21:30.741Z,70.13
2022-09-23T19:24:04.355Z,69.54
2022-09-23T19:26:32.777Z,68.95
2022-09-23T19:29:02.128Z,69.60
2022-09-23T19:31:30.366Z,68.06
2022-09-23T19:34:02.845Z,67.85
2022-09-23T19:36:31.145Z,68.28
2022-09-23T19:38:59.283Z,68.87
2022-09-23T19:41:28.147Z,68.44
2022-09-23T19:44:03.358Z,68.12
2022-09-23T19:46:33.251Z,67.40
2022-09-23T19:49:01.853Z,67.20
2022-09-23T19:51:29.985Z,67.79
2022-09-23T19:53:59.424Z,68.11
2022-09-23T19:56:29.566Z,67.84
2022-09-23T19:58:59.619Z,69.10
2022-09-23T20:01:27.839Z,68.85
2022-09-23T20:03:58.671Z,68.49
2022-09-23T20:06:26.324Z,70.05
2022-09-23T20:08:54.319Z,69.98
2022-09-23T20:11:28.093Z,69.93
2022-09-23T20:14:01.093Z,69.51
2022-09-23T20:16:32.788Z,69.83
2022-09-23T20:19:04.090Z,70.72
2022-09-23T20:21:31.808Z,72.11
2022-09-23T20:24:00.782Z,70.85
2022-09-23T20:26:46.062Z,70.61
2022-09-23T20:29:15.934Z,70.40
2022-09-23T20:31:43.618Z,70.12
2022-09-23T20:34:12.878Z,71.01
2022-09-23T20:36:41.636Z,69.13
2022-09-23T20:39:13.086Z,70.04
2022-09-23T20:41:40.745Z,69.96
2022-09-23T20:44:12.453Z,69.71
2022-09-23T20:46:45.283Z,69.10
2022-09-23T20:49:17.533Z,68.62
2022-09-23T20:51:48.393Z,69.40
2022-09-23T20:54:16.446Z,70.44
2022-09-23T20:56:46.908Z,71.74
2022-09-23T20:59:18.400Z,72.62
2022-09-23T21:01:46.569Z,71.19
2022-09-23T21:04:17.909Z,70.11
2022-09-23T21:06:47.206Z,69.63
2022-09-23T21:09:20.180Z,70.50
2022-09-23T21:11:50.601Z,72.38
2022-09-23T21:14:19.539Z,72.84
2022-09-23T21:16:48.431Z,71.52
2022-09-23T21:19:15.948Z,71.41
2022-09-23T21:21:46.469Z,71.60
2022-09-23T21:24:45.627Z,71.71
2022-09-23T21:27:04.637Z,72.61
2022-09-23T21:29:33.851Z,73.59
2022-09-23T21:32:06.240Z,72.89
2022-09-23T21:34:34.264Z,73.36
2022-09-23T21:37:02.023Z,72.08
2022-09-23T21:39:33.489Z,71.69
2022-09-23T21:42:01.547Z,72.39
2022-09-23T21:44:29.453Z,72.92
2022-09-23T21:46:59.955Z,71.94
2022-09-23T21:49:29.689Z,71.61
2022-09-23T21:52:00.691Z,72.42
2022-09-23T21:54:29.860Z,73.60
2022-09-23T21:57:00.516Z,74.16
2022-09-23T21:59:28.503Z,74.61
2022-09-23T22:01:56.023Z,76.07
2022-09-23T22:04:23.643Z,75.03
2022-09-23T22:06:51.347Z,72.59
2022-09-23T22:09:19.896Z,72.29
2022-09-23T22:12:08.558Z,72.65
2022-09-23T22:14:42.203Z,74.13
2022-09-23T22:17:12.235Z,73.95
2022-09-23T22:19:46.602Z,72.58
2022-09-23T22:22:15.869Z,73.20
2022-09-23T22:24:43.756Z,72.62
2022-09-23T22:27:12.136Z,72.77
2022-09-23T22:29:58.649Z,74.16
2022-09-23T22:32:51.541Z,74.03
2022-09-23T22:35:32.646Z,76.35
2022-09-23T22:38:01.215Z,74.31
2022-09-23T22:40:28.845Z,72.83
2022-09-23T22:42:57.017Z,73.71
2022-09-23T22:45:26.172Z,76.14
2022-09-23T22:47:54.154Z,76.07
2022-09-23T22:50:21.735Z,76.13
2022-09-23T22:52:49.764Z,75.98
2022-09-23T22:55:17.387Z,76.34
2022-09-23T22:57:46.206Z,75.68
2022-09-23T23:00:14.325Z,75.49
2022-09-23T23:02:44.300Z,74.28
2022-09-23T23:05:12.322Z,74.86
2022-09-23T23:07:40.539Z,75.09
2022-09-23T23:10:22.978Z,76.91
2022-09-23T23:12:56.163Z,76.08
2022-09-23T23:15:25.833Z,76.27
2022-09-23T23:17:59.257Z,76.53
2022-09-23T23:20:29.779Z,75.40
2022-09-23T23:22:57.378Z,75.37
2022-09-23T23:25:27.068Z,76.78
2022-09-23T23:27:56.965Z,77.09
2022-09-23T23:30:27.096Z,77.24
2022-09-23T23:32:56.502Z,77.51
2022-09-23T23:35:24.089Z,77.05
2022-09-23T23:37:52.129Z,76.89
2022-09-23T23:40:23.695Z,75.02
2022-09-23T23:42:51.629Z,76.19
2022-09-23T23:45:19.391Z,76.85
2022-09-23T23:47:46.917Z,78.54
2022-09-23T23:50:16.459Z,79.61
2022-09-23T23:52:44.038Z,78.64
2022-09-23T23:55:11.645Z,77.69
2022-09-23T23:57:39.593Z,77.57
